createdAt,value
2022-08-20T00:00:16.586Z,20.87
2022-08-20T00:02:48.611Z,20.84
2022-08-20T00:05:22.664Z,20.81
2022-08-20T00:07:51.616Z,20.85
2022-08-20T00:10:22.949Z,20.83
2022-08-20T00:12:52.862Z,20.85
2022-08-20T00:15:28.581Z,20.79
2022-08-20T00:17:59.142Z,20.76
2022-08-20T00:20:32.393Z,20.11
2022-08-20T00:23:01.885Z,20.77
2022-08-20T00:25:32.272Z,20.81
2022-08-20T00:28:03.724Z,19.98
2022-08-20T00:30:33.093Z,20.81
2022-08-20T00:33:06.332Z,20.81
2022-08-20T00:35:38.512Z,20.81
2022-08-20T00:38:07.480Z,20.76
2022-08-20T00:40:42.486Z,20.61
2022-08-20T00:43:33.485Z,20.77
2022-08-20T00:46:09.880Z,20.70
2022-08-20T00:48:44.554Z,20.64
2022-08-20T00:51:19.569Z,20.67
2022-08-20T00:53:48.343Z,20.63
2022-08-20T00:56:19.564Z,20.66
2022-08-20T00:58:51.063Z,20.47
2022-08-20T01:01:22.988Z,20.63
2022-08-20T01:03:56.652Z,19.53
2022-08-20T01:06:26.362Z,20.50
2022-08-20T01:08:55.333Z,20.49
2022-08-20T01:11:37.129Z,20.48
2022-08-20T01:14:31.723Z,20.50
2022-08-20T01:17:07.175Z,20.35
2022-08-20T01:19:43.182Z,20.25
2022-08-20T01:22:33.989Z,20.46
2022-08-20T01:25:14.052Z,20.53
2022-08-20T01:27:46.719Z,20.52
2022-08-20T01:30:22.220Z,20.45
2022-08-20T01:32:51.158Z,20.40
2022-08-20T01:35:23.677Z,20.27
2022-08-20T01:37:52.735Z,20.39
2022-08-20T01:40:44.540Z,20.41
2022-08-20T01:43:24.237Z,20.35
2022-08-20T01:45:54.219Z,20.31
2022-08-20T01:48:25.112Z,19.08
2022-08-20T01:51:15.754Z,18.92
2022-08-20T01:53:48.509Z,20.35
2022-08-20T01:56:25.373Z,19.30
2022-08-20T01:59:06.742Z,20.37
2022-08-20T02:01:45.958Z,20.34
2022-08-20T02:04:19.995Z,20.36
2022-08-20T02:07:01.496Z,18.91
2022-08-20T02:09:33.932Z,20.39
2022-08-20T02:12:10.292Z,20.37
2022-08-20T02:15:08.860Z,20.38
2022-08-20T02:17:57.208Z,20.36
2022-08-20T02:20:37.577Z,20.35
2022-08-20T02:23:07.430Z,20.37
2022-08-20T02:25:42.228Z,20.27
2022-08-20T02:28:24.994Z,18.75
2022-08-20T02:30:56.577Z,20.41
2022-08-20T02:33:33.674Z,20.38
2022-08-20T02:36:12.610Z,20.34
2022-08-20T02:39:00.985Z,20.37
2022-08-20T02:41:51.817Z,20.34
2022-08-20T02:44:21.534Z,20.34
2022-08-20T02:47:01.609Z,20.35
2022-08-20T02:49:37.686Z,20.39
2022-08-20T02:52:56.541Z,20.36
2022-08-20T02:56:08.943Z,20.31
2022-08-20T03:00:11.975Z,20.33
2022-08-20T03:02:25.510Z,20.42
2022-08-20T03:09:56.040Z,20.33
2022-08-20T03:32:31.953Z,20.21
2022-08-20T03:38:32.228Z,20.24
2022-08-20T03:41:03.334Z,20.28
2022-08-20T03:43:35.678Z,20.26
2022-08-20T03:46:05.166Z,20.22
2022-08-20T03:48:56.700Z,20.21
2022-08-20T03:51:30.067Z,20.17
2022-08-20T03:54:09.127Z,20.21
2022-08-20T03:56:38.724Z,20.21
2022-08-20T03:59:08.330Z,20.15
2022-08-20T04:01:46.756Z,20.19
2022-08-20T04:04:25.187Z,20.22
2022-08-20T04:07:00.383Z,20.16
2022-08-20T04:09:30.167Z,20.12
2022-08-20T04:12:01.291Z,20.11
2022-08-20T04:14:30.405Z,20.11
2022-08-20T04:17:06.904Z,20.02
2022-08-20T04:19:45.526Z,20.03
2022-08-20T04:25:50.325Z,20.07
2022-08-20T04:28:25.649Z,19.57
2022-08-20T04:30:54.789Z,20.13
2022-08-20T04:33:33.701Z,20.18
2022-08-20T04:36:07.012Z,19.35
2022-08-20T04:38:48.170Z,20.20
2022-08-20T04:41:23.208Z,20.25
2022-08-20T04:43:54.622Z,20.33
2022-08-20T04:46:28.928Z,20.11
2022-08-20T04:48:58.642Z,20.40
2022-08-20T04:51:28.775Z,20.38
2022-08-20T04:54:01.109Z,20.30
2022-08-20T04:56:39.007Z,19.98
2022-08-20T04:59:08.627Z,20.08
2022-08-20T05:01:37.574Z,20.07
2022-08-20T05:04:06.603Z,20.05
2022-08-20T05:06:36.661Z,19.80
2022-08-20T05:09:05.847Z,19.99
2022-08-20T05:11:36.891Z,19.97
2022-08-20T05:14:08.925Z,19.78
2022-08-20T05:16:39.098Z,19.96
2022-08-20T05:19:10.193Z,19.29
2022-08-20T05:21:40.882Z,19.80
2022-08-20T05:24:11.514Z,19.91
2022-08-20T05:26:40.935Z,19.93
2022-08-20T05:29:09.579Z,19.67
2022-08-20T05:31:39.437Z,19.95
2022-08-20T05:34:12.841Z,20.00
2022-08-20T05:36:48.283Z,19.96
2022-08-20T05:39:20.404Z,20.11
2022-08-20T05:41:51.425Z,20.09
2022-08-20T05:44:20.889Z,20.01
2022-08-20T05:46:50.712Z,20.14
2022-08-20T05:49:23.133Z,20.19
2022-08-20T05:51:53.379Z,20.17
2022-08-20T05:54:21.994Z,20.18
2022-08-20T05:56:50.553Z,20.23
2022-08-20T05:59:23.916Z,20.11
2022-08-20T06:01:53.552Z,19.88
2022-08-20T06:04:28.232Z,19.94
2022-08-20T06:07:06.778Z,19.89
2022-08-20T06:09:36.437Z,19.86
2022-08-20T06:12:09.102Z,19.75
2022-08-20T06:14:40.473Z,19.76
2022-08-20T06:17:15.299Z,19.71
2022-08-20T06:19:47.051Z,19.43
2022-08-20T06:22:22.988Z,19.64
2022-08-20T06:24:56.339Z,19.58
2022-08-20T06:27:26.261Z,19.61
2022-08-20T06:29:57.154Z,19.54
2022-08-20T06:32:32.383Z,19.47
2022-08-20T06:35:03.632Z,19.43
2022-08-20T06:37:37.133Z,19.43
2022-08-20T06:40:12.849Z,19.41
2022-08-20T06:42:48.067Z,19.46
2022-08-20T06:45:20.935Z,19.48
2022-08-20T06:47:52.761Z,19.48
2022-08-20T06:50:26.079Z,19.52
2022-08-20T06:52:56.672Z,19.44
2022-08-20T06:55:25.994Z,19.43
2022-08-20T06:57:59.806Z,19.50
2022-08-20T07:00:39.204Z,19.43
2022-08-20T07:03:09.552Z,19.46
2022-08-20T07:05:46.910Z,19.49
2022-08-20T07:08:22.297Z,19.45
2022-08-20T07:10:53.738Z,19.40
2022-08-20T07:13:22.826Z,19.50
2022-08-20T07:15:56.639Z,19.53
2022-08-20T07:18:32.018Z,19.53
2022-08-20T07:21:20.039Z,19.57
2022-08-20T07:23:50.885Z,19.48
2022-08-20T07:26:27.593Z,19.45
2022-08-20T07:28:59.393Z,19.53
2022-08-20T07:31:45.989Z,19.51
2022-08-20T07:34:17.514Z,19.52
2022-08-20T07:36:54.979Z,19.54
2022-08-20T07:39:27.109Z,19.49
2022-08-20T07:42:04.041Z,19.50
2022-08-20T07:44:39.057Z,19.48
2022-08-20T07:47:08.354Z,19.44
2022-08-20T07:49:40.211Z,19.41
2022-08-20T07:52:09.731Z,19.48
2022-08-20T07:54:45.568Z,19.43
2022-08-20T07:57:20.611Z,19.44
2022-08-20T08:00:00.328Z,19.49
2022-08-20T08:02:31.314Z,19.48
2022-08-20T08:05:04.998Z,19.51
2022-08-20T08:07:35.157Z,19.47
2022-08-20T08:10:11.385Z,19.51
2022-08-20T08:12:48.972Z,19.55
2022-08-20T08:15:25.612Z,19.54
2022-08-20T08:17:59.011Z,19.64
2022-08-20T08:20:33.713Z,19.71
2022-08-20T08:23:02.677Z,19.73
2022-08-20T08:25:33.759Z,19.81
2022-08-20T08:28:05.492Z,19.90
2022-08-20T08:30:34.632Z,19.91
2022-08-20T08:33:20.707Z,19.96
2022-08-20T08:35:50.941Z,19.94
2022-08-20T08:38:23.069Z,19.90
2022-08-20T08:40:59.108Z,20.09
2022-08-20T08:43:31.761Z,19.86
2022-08-20T08:46:03.648Z,19.93
2022-08-20T08:48:37.649Z,19.91
2022-08-20T08:51:12.456Z,19.98
2022-08-20T08:53:47.310Z,19.15
2022-08-20T08:56:18.328Z,19.99
2022-08-20T08:58:47.282Z,19.99
2022-08-20T09:01:53.808Z,20.01
2022-08-20T09:04:11.206Z,19.90
2022-08-20T09:06:40.751Z,19.70
2022-08-20T09:09:18.997Z,19.91
2022-08-20T09:11:53.290Z,19.91
2022-08-20T09:14:25.010Z,19.94
2022-08-20T09:16:54.445Z,19.98
2022-08-20T09:19:23.317Z,19.97
2022-08-20T09:21:52.611Z,19.97
2022-08-20T09:24:21.528Z,20.03
2022-08-20T09:26:51.984Z,20.02
2022-08-20T09:29:20.912Z,20.08
2022-08-20T09:31:49.948Z,20.08
2022-08-20T09:34:18.877Z,20.13
2022-08-20T09:36:47.790Z,20.12
2022-08-20T09:39:16.638Z,20.14
2022-08-20T09:41:45.530Z,20.13
2022-08-20T09:44:15.851Z,20.11
2022-08-20T09:46:44.807Z,20.06
2022-08-20T09:49:13.750Z,20.13
2022-08-20T09:51:42.712Z,20.19
2022-08-20T09:54:11.636Z,20.24
2022-08-20T09:56:40.656Z,20.32
2022-08-20T09:59:09.552Z,20.61
2022-08-20T10:01:39.915Z,20.78
2022-08-20T10:04:08.859Z,20.90
2022-08-20T10:06:42.084Z,21.07
2022-08-20T10:09:11.108Z,20.91
2022-08-20T10:11:43.509Z,20.96
2022-08-20T10:14:12.542Z,20.81
2022-08-20T10:16:42.856Z,20.64
2022-08-20T10:19:11.778Z,20.65
2022-08-20T10:21:41.028Z,20.74
2022-08-20T10:24:10.012Z,20.75
2022-08-20T10:26:43.126Z,20.84
2022-08-20T10:29:12.116Z,20.81
2022-08-20T10:31:42.644Z,20.66
2022-08-20T10:34:11.544Z,20.65
2022-08-20T10:36:42.709Z,20.73
2022-08-20T10:39:11.826Z,20.84
2022-08-20T10:41:40.707Z,20.97
2022-08-20T10:44:09.867Z,20.97
2022-08-20T10:46:55.320Z,20.87
2022-08-20T10:49:28.091Z,20.23
2022-08-20T10:51:57.061Z,20.68
2022-08-20T10:54:26.762Z,20.56
2022-08-20T10:56:55.847Z,20.51
2022-08-20T10:59:30.398Z,20.42
2022-08-20T11:02:00.840Z,20.44
2022-08-20T11:04:31.372Z,20.40
2022-08-20T11:07:22.463Z,19.65
2022-08-20T11:10:14.541Z,20.32
2022-08-20T11:12:46.399Z,20.25
2022-08-20T11:15:18.449Z,20.19
2022-08-20T11:17:47.675Z,20.14
2022-08-20T11:20:21.714Z,20.10
2022-08-20T11:22:50.996Z,20.06
2022-08-20T11:25:23.042Z,20.13
2022-08-20T11:27:57.570Z,20.12
2022-08-20T11:30:32.746Z,20.09
2022-08-20T11:33:02.771Z,20.12
2022-08-20T11:35:43.293Z,19.14
2022-08-20T11:38:22.408Z,20.04
2022-08-20T11:40:51.547Z,19.98
2022-08-20T11:43:23.015Z,19.90
2022-08-20T11:45:56.668Z,19.82
2022-08-20T11:48:25.799Z,19.79
2022-08-20T11:50:59.574Z,19.71
2022-08-20T11:53:30.906Z,19.63
2022-08-20T11:56:04.179Z,19.56
2022-08-20T11:58:33.909Z,19.52
2022-08-20T12:01:04.156Z,19.43
2022-08-20T12:03:33.213Z,19.42
2022-08-20T12:06:03.930Z,19.39
2022-08-20T12:08:33.368Z,19.43
2022-08-20T12:11:04.883Z,19.34
2022-08-20T12:13:48.773Z,19.36
2022-08-20T12:16:22.766Z,19.30
2022-08-20T12:18:52.557Z,19.27
2022-08-20T12:21:23.292Z,19.33
2022-08-20T12:23:52.689Z,19.39
2022-08-20T12:26:24.659Z,19.44
2022-08-20T12:28:55.342Z,19.47
2022-08-20T12:31:24.295Z,19.52
2022-08-20T12:33:53.332Z,19.62
2022-08-20T12:36:25.795Z,19.60
2022-08-20T12:38:59.552Z,19.68
2022-08-20T12:41:28.685Z,19.77
2022-08-20T12:44:07.240Z,19.71
2022-08-20T12:46:44.520Z,19.73
2022-08-20T12:49:13.566Z,19.81
2022-08-20T12:51:43.880Z,19.89
2022-08-20T12:54:14.797Z,19.92
2022-08-20T12:56:44.310Z,19.91
2022-08-20T12:59:15.382Z,19.88
2022-08-20T13:01:44.851Z,19.84
2022-08-20T13:04:13.721Z,19.85
2022-08-20T13:06:44.165Z,19.90
2022-08-20T13:09:13.772Z,19.95
2022-08-20T13:11:42.796Z,19.92
2022-08-20T13:14:11.899Z,19.89
2022-08-20T13:16:40.783Z,19.87
2022-08-20T13:19:09.868Z,19.85
2022-08-20T13:21:41.545Z,19.69
2022-08-20T13:24:11.878Z,19.85
2022-08-20T13:26:40.893Z,19.87
2022-08-20T13:29:09.511Z,19.80
2022-08-20T13:31:38.545Z,19.81
2022-08-20T13:34:07.498Z,19.82
2022-08-20T13:36:36.850Z,19.76
2022-08-20T13:39:07.635Z,19.70
2022-08-20T13:41:37.913Z,19.58
2022-08-20T13:44:06.942Z,19.54
2022-08-20T13:46:35.863Z,19.52
2022-08-20T13:49:04.901Z,19.51
2022-08-20T13:51:33.843Z,19.49
2022-08-20T13:54:02.443Z,19.25
2022-08-20T13:56:31.588Z,19.45
2022-08-20T13:59:01.920Z,19.50
2022-08-20T14:01:31.191Z,19.58
2022-08-20T14:04:00.288Z,19.64
2022-08-20T14:06:31.640Z,19.51
2022-08-20T14:09:00.610Z,19.63
2022-08-20T14:11:31.057Z,18.60
2022-08-20T14:14:02.300Z,19.62
2022-08-20T14:16:35.615Z,19.71
2022-08-20T14:19:05.046Z,19.72
2022-08-20T14:21:34.040Z,19.77
2022-08-20T14:24:03.108Z,19.79
2022-08-20T14:26:31.994Z,19.81
2022-08-20T14:29:02.266Z,19.87
2022-08-20T14:31:31.327Z,19.90
2022-08-20T14:34:00.220Z,20.00
2022-08-20T14:36:29.279Z,20.01
2022-08-20T14:38:58.207Z,20.01
2022-08-20T14:41:26.821Z,19.86
2022-08-20T14:43:57.430Z,19.87
2022-08-20T14:46:27.667Z,19.81
2022-08-20T14:48:57.353Z,19.73
2022-08-20T14:51:26.018Z,19.63
2022-08-20T14:53:54.654Z,19.41
2022-08-20T14:56:23.523Z,19.43
2022-08-20T14:58:52.400Z,19.41
2022-08-20T15:01:21.569Z,19.32
2022-08-20T15:03:52.029Z,19.33
2022-08-20T15:06:22.495Z,19.22
2022-08-20T15:08:51.274Z,19.15
2022-08-20T15:11:21.404Z,19.16
2022-08-20T15:13:50.061Z,19.14
2022-08-20T15:16:18.906Z,19.09
2022-08-20T15:18:47.805Z,19.07
2022-08-20T15:21:21.472Z,19.07
2022-08-20T15:23:50.854Z,19.09
2022-08-20T15:26:19.752Z,19.09
2022-08-20T15:28:48.708Z,19.08
2022-08-20T15:31:17.596Z,19.10
2022-08-20T15:33:46.552Z,19.06
2022-08-20T15:36:15.281Z,19.08
2022-08-20T15:38:45.551Z,19.06
2022-08-20T15:41:14.537Z,19.04
2022-08-20T15:43:43.351Z,19.00
2022-08-20T15:46:12.271Z,18.95
2022-08-20T15:48:47.091Z,18.94
2022-08-20T15:51:34.164Z,18.88
2022-08-20T15:54:09.372Z,18.81
2022-08-20T15:57:03.957Z,18.79
2022-08-20T16:00:12.834Z,18.60
2022-08-20T16:03:13.451Z,18.63
2022-08-20T16:05:51.771Z,18.79
2022-08-20T16:08:48.663Z,18.54
2022-08-20T16:11:33.612Z,18.73
2022-08-20T16:14:16.534Z,18.81
2022-08-20T16:16:49.855Z,18.82
2022-08-20T16:19:30.392Z,18.63
2022-08-20T16:22:00.469Z,18.86
2022-08-20T16:24:38.382Z,18.84
2022-08-20T16:27:23.435Z,18.60
2022-08-20T16:30:01.357Z,18.82
2022-08-20T16:32:40.990Z,18.88
2022-08-20T16:35:31.020Z,19.08
2022-08-20T16:38:21.122Z,18.96
2022-08-20T16:40:57.550Z,19.10
2022-08-20T16:43:35.192Z,18.96
2022-08-20T16:46:10.064Z,19.13
2022-08-20T16:48:46.172Z,18.21
2022-08-20T16:51:20.243Z,18.82
2022-08-20T16:53:49.172Z,19.12
2022-08-20T16:56:34.466Z,18.84
2022-08-20T16:59:12.552Z,19.14
2022-08-20T17:02:04.514Z,19.14
2022-08-20T17:04:44.820Z,19.12
2022-08-20T17:07:33.686Z,19.12
2022-08-20T17:10:21.439Z,19.08
2022-08-20T17:12:58.312Z,18.99
2022-08-20T17:15:32.794Z,19.02
2022-08-20T17:18:22.050Z,18.59
2022-08-20T17:20:51.595Z,18.29
2022-08-20T17:23:22.901Z,18.94
2022-08-20T17:26:05.666Z,18.80
2022-08-20T17:28:35.565Z,18.52
2022-08-20T17:31:05.993Z,18.91
2022-08-20T17:33:40.281Z,18.87
2022-08-20T17:36:12.439Z,18.36
2022-08-20T17:38:49.970Z,18.81
2022-08-20T17:41:22.865Z,18.79
2022-08-20T17:43:59.490Z,18.76
2022-08-20T17:46:44.090Z,18.74
2022-08-20T17:49:19.331Z,18.73
2022-08-20T17:51:53.050Z,18.65
2022-08-20T17:54:27.217Z,18.69
2022-08-20T17:57:03.065Z,18.65
2022-08-20T18:00:01.487Z,18.62
2022-08-20T18:02:31.073Z,18.59
2022-08-20T18:05:00.160Z,18.54
2022-08-20T18:07:37.454Z,18.25
2022-08-20T18:10:14.921Z,18.51
2022-08-20T18:12:59.256Z,18.48
2022-08-20T18:15:33.002Z,18.24
2022-08-20T18:18:31.258Z,18.45
2022-08-20T18:21:27.227Z,18.39
2022-08-20T18:24:05.202Z,18.43
2022-08-20T18:26:43.231Z,17.36
2022-08-20T18:29:18.393Z,17.84
2022-08-20T18:31:51.575Z,18.23
2022-08-20T18:34:37.265Z,18.35
2022-08-20T18:37:21.313Z,18.23
2022-08-20T18:39:52.351Z,18.33
2022-08-20T18:42:30.958Z,18.20
2022-08-20T18:45:00.280Z,18.29
2022-08-20T18:47:43.028Z,18.01
2022-08-20T18:50:28.663Z,18.29
2022-08-20T18:53:16.862Z,18.12
2022-08-20T18:55:48.903Z,18.12
2022-08-20T18:58:32.965Z,18.27
2022-08-20T19:01:09.061Z,17.70
2022-08-20T19:03:46.911Z,18.24
2022-08-20T19:06:54.328Z,18.04
2022-08-20T19:10:27.619Z,17.98
2022-08-20T19:13:46.270Z,18.21
2022-08-20T19:16:22.788Z,18.21
2022-08-20T19:18:55.794Z,18.19
2022-08-20T19:21:33.023Z,18.21
2022-08-20T19:24:08.194Z,17.56
2022-08-20T19:26:44.711Z,17.95
2022-08-20T19:29:21.071Z,17.81
2022-08-20T19:31:50.290Z,18.24
2022-08-20T19:34:26.835Z,18.21
2022-08-20T19:37:09.092Z,17.80
2022-08-20T19:39:52.682Z,18.03
2022-08-20T19:42:26.521Z,18.13
2022-08-20T19:44:59.657Z,18.09
2022-08-20T19:47:34.017Z,18.20
2022-08-20T19:50:20.652Z,18.20
2022-08-20T19:53:08.808Z,17.93
2022-08-20T19:55:41.718Z,18.07
2022-08-20T19:58:25.999Z,18.19
2022-08-20T20:00:56.765Z,18.19
2022-08-20T20:03:29.308Z,18.19
2022-08-20T20:06:01.886Z,18.20
2022-08-20T20:08:48.306Z,18.22
2022-08-20T20:11:22.772Z,18.23
2022-08-20T20:13:52.109Z,18.25
2022-08-20T20:16:23.574Z,17.25
2022-08-20T20:19:16.003Z,18.30
2022-08-20T20:21:49.108Z,18.14
2022-08-20T20:24:27.648Z,18.00
2022-08-20T20:27:00.620Z,18.27
2022-08-20T20:29:59.050Z,18.31
2022-08-20T20:32:29.331Z,18.05
2022-08-20T20:35:05.269Z,18.02
2022-08-20T20:37:50.933Z,18.26
2022-08-20T20:40:28.711Z,18.29
2022-08-20T20:43:12.982Z,18.21
2022-08-20T20:45:53.427Z,18.19
2022-08-20T20:48:27.713Z,16.88
2022-08-20T20:51:13.520Z,17.55
2022-08-20T20:53:54.842Z,17.93
2022-08-20T20:56:36.110Z,18.29
2022-08-20T20:59:07.310Z,18.27
2022-08-20T21:01:47.969Z,18.24
2022-08-20T21:04:19.429Z,18.24
2022-08-20T21:06:48.873Z,18.25
2022-08-20T21:09:17.877Z,18.23
2022-08-20T21:11:49.931Z,18.24
2022-08-20T21:14:37.366Z,18.25
2022-08-20T21:17:08.443Z,18.27
2022-08-20T21:19:46.359Z,18.24
2022-08-20T21:22:15.548Z,18.22
2022-08-20T21:24:45.666Z,18.22
2022-08-20T21:27:26.097Z,18.22
2022-08-20T21:29:55.641Z,18.23
2022-08-20T21:32:24.836Z,18.25
2022-08-20T21:34:53.955Z,18.23
2022-08-20T21:37:23.077Z,18.21
2022-08-20T21:39:52.476Z,18.21
2022-08-20T21:42:29.098Z,18.20
2022-08-20T21:44:59.125Z,18.22
2022-08-20T21:47:29.178Z,18.22
2022-08-20T21:49:57.981Z,18.22
2022-08-20T21:52:26.589Z,18.22
2022-08-20T21:54:56.454Z,18.23
2022-08-20T21:57:31.108Z,17.69
2022-08-20T22:00:02.300Z,18.22
2022-08-20T22:02:33.865Z,18.17
2022-08-20T22:05:02.539Z,18.21
2022-08-20T22:07:31.394Z,18.19
2022-08-20T22:10:07.366Z,18.19
2022-08-20T22:12:37.943Z,18.17
2022-08-20T22:15:08.344Z,18.18
2022-08-20T22:17:36.997Z,18.15
2022-08-20T22:20:08.787Z,18.14
2022-08-20T22:22:39.423Z,18.15
2022-08-20T22:25:10.270Z,18.12
2022-08-20T22:27:43.131Z,18.13
2022-08-20T22:30:13.385Z,17.86
2022-08-20T22:33:01.537Z,18.08
2022-08-20T22:35:31.266Z,18.08
2022-08-20T22:38:00.225Z,18.06
2022-08-20T22:40:29.131Z,18.07
2022-08-20T22:42:59.498Z,18.08
2022-08-20T22:45:28.760Z,18.07
2022-08-20T22:47:57.505Z,18.07
2022-08-20T22:50:26.509Z,18.07
2022-08-20T22:52:55.736Z,18.07
2022-08-20T22:55:24.640Z,18.08
2022-08-20T22:57:53.545Z,18.08
2022-08-20T23:00:24.244Z,18.03
2022-08-20T23:02:58.764Z,17.91
2022-08-20T23:05:31.842Z,18.10
2022-08-20T23:08:02.311Z,17.71
2022-08-20T23:10:33.217Z,18.14
2022-08-20T23:13:01.923Z,18.12
2022-08-20T23:15:37.783Z,18.12
2022-08-20T23:18:16.668Z,18.12
2022-08-20T23:20:56.233Z,17.68
2022-08-20T23:23:26.238Z,18.16
2022-08-20T23:25:56.169Z,18.16
2022-08-20T23:28:26.820Z,18.16
2022-08-20T23:30:57.078Z,18.17
2022-08-20T23:33:26.124Z,18.19
2022-08-20T23:35:54.747Z,18.03
2022-08-20T23:38:23.469Z,18.21
2022-08-20T23:40:52.294Z,18.21
2022-08-20T23:43:21.140Z,18.22
2022-08-20T23:45:49.698Z,18.21
2022-08-20T23:48:19.975Z,18.22
2022-08-20T23:50:48.913Z,18.23
2022-08-20T23:53:17.465Z,18.19
2022-08-20T23:55:46.347Z,18.24
2022-08-20T23:58:14.974Z,18.13
